Terminal Aerodrome Forecast
Issued by NWS

Home | Current Version | Previous Version | Text Only | Print | Product List | Glossary On
Versions: 1 2 3 4 5 6 7 8 9 10 11 12 13 14 15 16 17
899
FTUS46 KPDT 221722
TAFALW
TAF
KALW 221722Z 2218/2318 22010KT P6SM SCT050 BKN090
     FM222100 22011KT P6SM -SHRA SCT050 OVC080
     FM230300 17009KT P6SM VCSH OVC080
     FM231500 20011KT P6SM BKN080 BKN140=

USA.gov is the U.S. government's official web portal to all federal, state and local government web resources and services.